Time;durP1;ratioP1;P1;durP2;ratioP2;P2;SDS_P1;SDS_P2;PMS_P1;PMS_P2;Temp;Humidity;BMP_temperature;BMP_pressure;BME280_temperature;BME280_humidity;BME280_pressure;Samples;Min_cycle;Max_cycle;Signal;HPM_P1;HPM_P2
2020/12/27 00:01:48;;;;;;;16.17;11.75;;;;;;;5.09;63.63;100715.75;4953136;28;97655;-75
2020/12/27 00:04:31;;;;;;;19.92;15.38;;;;;;;5.05;62.84;100710.69;4970052;28;98619;-75
2020/12/27 00:07:04;;;;;;;18.20;10.85;;;;;;;5.12;62.87;100709.69;4970345;28;97684;-75
2020/12/27 00:09:31;;;;;;;16.58;11.45;;;;;;;5.05;62.82;100706.38;4970439;28;96868;-75
2020/12/27 00:11:57;;;;;;;15.07;10.55;;;;;;;4.93;63.09;100702.28;4952517;28;96754;-75
2020/12/27 00:14:23;;;;;;;14.98;10.80;;;;;;;4.62;64.98;100706.34;4970333;28;98455;-76
2020/12/27 00:16:50;;;;;;;20.25;12.73;;;;;;;4.55;65.70;100709.91;4970074;28;98480;-75
2020/12/27 00:19:16;;;;;;;17.15;13.77;;;;;;;4.62;65.42;100703.75;4969559;28;96686;-73
2020/12/27 00:21:43;;;;;;;15.57;11.55;;;;;;;4.43;66.06;100695.50;4951919;28;97328;-76
2020/12/27 00:24:09;;;;;;;20.60;12.70;;;;;;;4.65;64.90;100683.91;4969801;28;98421;-75
2020/12/27 00:26:35;;;;;;;15.10;10.63;;;;;;;4.78;64.03;100678.50;4970470;28;98686;-75
2020/12/27 00:29:03;;;;;;;15.52;11.88;;;;;;;4.87;63.62;100670.56;4970171;28;96723;-75
2020/12/27 00:31:29;;;;;;;17.38;13.75;;;;;;;4.79;64.01;100660.38;4970492;28;96715;-75
2020/12/27 00:33:55;;;;;;;17.27;12.85;;;;;;;4.85;62.92;100668.03;4969398;28;98494;-76
2020/12/27 00:36:22;;;;;;;13.40;10.70;;;;;;;4.67;63.59;100653.72;4969806;28;98570;-75
2020/12/27 00:38:48;;;;;;;18.10;11.45;;;;;;;4.67;63.94;100650.28;4969639;28;96666;-75
2020/12/27 00:41:22;;;;;;;17.05;11.48;;;;;;;4.79;63.14;100652.63;4953368;28;96671;-76
2020/12/27 00:43:49;;;;;;;16.67;10.90;;;;;;;4.50;64.66;100650.63;4969421;28;98690;-76
2020/12/27 00:46:16;;;;;;;14.90;10.57;;;;;;;4.58;64.51;100643.59;4973381;28;98631;-76
2020/12/27 00:48:42;;;;;;;15.27;10.93;;;;;;;4.53;65.25;100637.66;4971846;28;96728;-76
2020/12/27 00:51:09;;;;;;;17.20;10.90;;;;;;;4.62;64.39;100623.69;4956140;28;96565;-76
2020/12/27 00:53:36;;;;;;;16.60;10.38;;;;;;;4.65;64.17;100632.25;4952418;28;98189;-76
2020/12/27 00:56:02;;;;;;;15.43;10.55;;;;;;;4.61;64.35;100630.59;4948164;28;100112;-75
2020/12/27 00:58:32;;;;;;;14.70;9.90;;;;;;;4.68;64.09;100621.00;4966224;28;98563;-75
2020/12/27 01:00:59;;;;;;;15.05;10.07;;;;;;;4.71;63.20;100616.63;4966647;28;97099;-75
2020/12/27 01:03:25;;;;;;;18.17;12.25;;;;;;;4.67;63.08;100617.56;4964690;28;100299;-75
2020/12/27 01:06:25;;;;;;;20.35;13.45;;;;;;;4.72;62.88;100613.16;4950581;28;100424;-76
2020/12/27 01:08:56;;;;;;;26.52;18.52;;;;;;;4.81;62.75;100612.13;4934077;28;97866;-74
2020/12/27 01:11:24;;;;;;;24.15;18.17;;;;;;;4.68;63.81;100621.84;4947953;28;96762;-73
2020/12/27 01:13:51;;;;;;;28.27;18.33;;;;;;;4.49;64.34;100617.94;4965044;28;98907;-73
2020/12/27 01:16:19;;;;;;;25.25;18.60;;;;;;;4.18;65.51;100608.19;4955403;28;99824;-74
2020/12/27 01:18:46;;;;;;;25.52;17.58;;;;;;;4.02;66.22;100606.75;4950884;28;97377;-76
2020/12/27 01:21:24;;;;;;;21.70;14.85;;;;;;;4.25;65.72;100602.91;4981136;28;99824;-75
2020/12/27 01:23:51;;;;;;;23.30;16.27;;;;;;;4.39;64.59;100606.09;4965337;28;98655;-74
2020/12/27 01:26:17;;;;;;;20.00;14.20;;;;;;;4.38;64.63;100596.66;4981025;28;99703;-75
2020/12/27 01:28:44;;;;;;;20.65;13.20;;;;;;;4.14;65.52;100613.41;4966316;28;96795;-73
2020/12/27 01:31:19;;;;;;;16.92;14.32;;;;;;;4.29;65.00;100597.66;4966759;28;96817;-75
2020/12/27 01:33:47;;;;;;;19.92;15.55;;;;;;;4.22;65.42;100598.66;4980494;28;100112;-77
2020/12/27 01:36:31;;;;;;;20.95;13.85;;;;;;;4.25;65.16;100593.41;4980961;28;99937;-75
2020/12/27 01:38:59;;;;;;;27.33;13.90;;;;;;;4.22;65.65;100597.81;4979700;28;99500;-75
2020/12/27 01:41:26;;;;;;;17.38;10.95;;;;;;;4.29;64.37;100595.06;4964061;28;97236;-76
2020/12/27 01:44:02;;;;;;;17.00;12.05;;;;;;;4.48;63.99;100590.44;4963712;28;98668;-75
2020/12/27 01:46:29;;;;;;;15.85;11.88;;;;;;;4.55;63.31;100586.84;4980585;28;100348;-76
2020/12/27 01:48:57;;;;;;;16.23;10.73;;;;;;;4.44;64.00;100588.78;4979968;28;98702;-76
2020/12/27 01:51:23;;;;;;;21.50;11.85;;;;;;;4.49;63.05;100576.63;4964911;28;98263;-76
2020/12/27 01:53:53;;;;;;;16.35;11.40;;;;;;;4.41;63.71;100578.50;4979318;28;100388;-75
2020/12/27 01:56:45;;;;;;;16.27;11.02;;;;;;;4.22;64.87;100574.59;4965265;28;98521;-75
2020/12/27 01:59:17;;;;;;;20.45;14.60;;;;;;;4.48;63.09;100572.34;4947681;28;97060;-74
2020/12/27 02:01:47;;;;;;;16.13;11.73;;;;;;;4.39;63.29;100577.69;4964803;28;96776;-76
2020/12/27 02:04:32;;;;;;;17.45;11.82;;;;;;;4.46;63.25;100568.94;4963907;28;97652;-76
2020/12/27 02:06:59;;;;;;;16.25;12.32;;;;;;;4.16;64.97;100573.81;4963951;28;100405;-76
2020/12/27 02:09:46;;;;;;;23.38;9.85;;;;;;;4.37;63.72;100567.41;4964603;28;99300;-76
2020/12/27 02:12:13;;;;;;;13.32;10.90;;;;;;;4.52;62.52;100565.38;4964159;28;96819;-77
2020/12/27 02:14:45;;;;;;;9.80;8.13;;;;;;;4.49;62.53;100561.13;4963434;28;100314;-76
2020/12/27 02:17:13;;;;;;;11.00;7.90;;;;;;;4.46;62.84;100550.88;4980153;28;100324;-76
2020/12/27 02:20:01;;;;;;;11.57;7.97;;;;;;;4.35;63.84;100552.81;4963035;28;99510;-75
2020/12/27 02:22:40;;;;;;;9.65;7.53;;;;;;;4.13;64.78;100547.22;4965144;28;98195;-76
2020/12/27 02:25:27;;;;;;;9.98;7.63;;;;;;;4.02;65.04;100551.72;4965417;28;98217;-75
2020/12/27 02:28:03;;;;;;;10.25;7.03;;;;;;;4.33;63.45;100560.59;4980340;28;99381;-75
2020/12/27 02:30:30;;;;;;;8.23;7.40;;;;;;;4.34;63.13;100553.69;4979685;28;96944;-75
2020/12/27 02:32:59;;;;;;;7.85;6.30;;;;;;;4.22;64.03;100556.53;4963305;28;99819;-75
2020/12/27 02:35:27;;;;;;;9.82;7.63;;;;;;;3.89;65.78;100551.94;4963936;28;100124;-75
2020/12/27 02:37:56;;;;;;;8.25;6.00;;;;;;;3.87;65.67;100545.09;4964298;28;98437;-75
2020/12/27 02:40:23;;;;;;;7.82;6.18;;;;;;;4.11;64.32;100547.25;4982572;28;96778;-76
2020/12/27 02:43:16;;;;;;;13.23;7.38;;;;;;;4.22;63.52;100530.72;4942075;28;97733;-76
2020/12/27 02:45:46;;;;;;;6.93;5.95;;;;;;;4.17;63.56;100529.06;4980016;28;100346;-75
2020/12/27 02:48:36;;;;;;;9.27;6.10;;;;;;;4.05;64.46;100526.72;4925132;28;97356;-75
2020/12/27 02:51:10;;;;;;;8.02;6.07;;;;;;;3.87;65.54;100527.06;4963457;28;97603;-75
2020/12/27 02:53:37;;;;;;;9.90;7.10;;;;;;;3.82;64.70;100528.88;4964061;28;96969;-75
2020/12/27 02:56:04;;;;;;;9.32;7.15;;;;;;;4.02;63.89;100519.03;4979312;28;98552;-75
2020/12/27 02:58:32;;;;;;;7.28;5.97;;;;;;;3.45;66.42;100521.75;4969676;28;99778;-76
2020/12/27 03:01:00;;;;;;;9.25;6.50;;;;;;;3.71;65.04;100512.72;4963638;28;98634;-75
2020/12/27 03:03:45;;;;;;;6.80;6.00;;;;;;;3.64;65.43;100497.38;4964986;28;97454;-75
2020/12/27 03:06:33;;;;;;;7.65;6.28;;;;;;;3.48;66.51;100501.09;4979749;28;100936;-75
2020/12/27 03:09:06;;;;;;;7.05;5.60;;;;;;;3.67;64.85;100492.19;4961784;28;99896;-75
2020/12/27 03:12:05;;;;;;;17.13;6.18;;;;;;;4.01;63.36;100491.53;4959648;28;97929;-75
2020/12/27 03:14:32;;;;;;;6.93;4.68;;;;;;;4.08;62.76;100489.69;4979055;28;98993;-75
2020/12/27 03:17:16;;;;;;;;;;;;;;;3.86;63.72;100481.50;4965935;28;98487;-75
2020/12/27 03:19:58;;;;;;;7.55;5.80;;;;;;;3.77;64.28;100467.06;4977386;28;100317;-75
2020/12/27 03:22:29;;;;;;;5.22;4.82;;;;;;;3.89;63.21;100461.69;4961472;28;97497;-75
2020/12/27 03:25:16;;;;;;;5.85;4.97;;;;;;;4.07;62.88;100470.78;4952855;28;98319;-75
2020/12/27 03:27:42;;;;;;;9.75;5.15;;;;;;;4.16;62.04;100465.44;4965185;28;99575;-75
2020/12/27 03:30:09;;;;;;;6.72;5.97;;;;;;;4.20;62.45;100474.81;4979053;28;100050;-76
2020/12/27 03:32:39;;;;;;;4.90;4.40;;;;;;;4.03;62.88;100473.44;4949190;28;96711;-76
2020/12/27 03:35:05;;;;;;;5.25;4.75;;;;;;;4.07;62.96;100475.09;4964716;28;98449;-76
2020/12/27 03:37:35;;;;;;;5.90;5.30;;;;;;;4.11;62.36;100480.16;4962100;28;99998;-76
2020/12/27 03:40:20;;;;;;;6.55;4.80;;;;;;;3.91;64.03;100479.69;4964289;28;99385;-76
2020/12/27 03:42:57;;;;;;;9.98;6.10;;;;;;;4.02;63.28;100476.91;4963804;28;100089;-76
2020/12/27 03:45:25;;;;;;;10.02;5.38;;;;;;;3.88;64.46;100474.59;4979287;28;97781;-76
2020/12/27 03:48:12;;;;;;;8.73;5.97;;;;;;;3.87;64.24;100476.31;4958566;28;100402;-76
2020/12/27 03:50:52;;;;;;;7.63;5.65;;;;;;;4.06;63.02;100466.50;4964398;28;99878;-76
2020/12/27 03:53:19;;;;;;;5.45;4.88;;;;;;;4.06;62.86;100463.94;4961974;28;97244;-75
2020/12/27 03:55:59;;;;;;;6.03;4.68;;;;;;;4.24;62.04;100464.44;4961224;28;97823;-75
2020/12/27 03:58:44;;;;;;;6.78;6.07;;;;;;;4.24;61.90;100459.28;4963785;28;98425;-75
2020/12/27 04:01:21;;;;;;;11.00;5.05;;;;;;;4.00;63.45;100464.06;4979491;28;99820;-75
2020/12/27 04:03:48;;;;;;;5.20;4.68;;;;;;;3.91;63.70;100459.91;4962885;28;97326;-75
2020/12/27 04:06:20;;;;;;;5.22;4.72;;;;;;;3.88;63.62;100464.28;4962402;28;98132;-76
2020/12/27 04:08:51;;;;;;;6.28;5.13;;;;;;;4.11;62.54;100451.78;4961822;28;99894;-75
2020/12/27 04:11:18;;;;;;;6.43;4.70;;;;;;;3.93;63.42;100447.81;4962618;28;99920;-76
2020/12/27 04:13:46;;;;;;;7.20;4.90;;;;;;;4.04;62.76;100450.19;4978057;28;97297;-75
2020/12/27 04:16:16;;;;;;;6.28;5.10;;;;;;;4.09;62.05;100435.47;4978709;28;98313;-75
2020/12/27 04:18:42;;;;;;;5.78;4.50;;;;;;;3.65;63.88;100429.47;4978396;28;99898;-76
2020/12/27 04:21:32;;;;;;;9.43;4.97;;;;;;;3.62;64.48;100432.13;4963709;28;98349;-76
2020/12/27 04:24:17;;;;;;;7.60;6.88;;;;;;;3.59;64.80;100427.00;4965614;28;98988;-75
2020/12/27 04:26:46;;;;;;;4.63;4.00;;;;;;;3.81;63.29;100421.44;4983261;28;97113;-76
2020/12/27 04:29:12;;;;;;;7.30;4.47;;;;;;;3.94;61.02;100413.44;4955293;28;100387;-76
2020/12/27 04:31:43;;;;;;;5.25;4.30;;;;;;;3.88;61.90;100413.53;4964706;28;99603;-75
2020/12/27 04:34:23;;;;;;;5.82;5.28;;;;;;;3.57;63.62;100410.72;4965573;28;97365;-75
2020/12/27 04:36:49;;;;;;;6.57;4.35;;;;;;;3.55;62.79;100409.03;4981449;28;97408;-75
2020/12/27 04:39:20;;;;;;;5.15;3.70;;;;;;;3.55;63.60;100415.03;4964539;28;100764;-75
2020/12/27 04:41:50;;;;;;;7.03;5.63;;;;;;;3.48;62.26;100410.03;4948869;28;99614;-75
2020/12/27 04:44:39;;;;;;;8.45;4.65;;;;;;;3.34;63.58;100411.13;4967245;28;96636;-75
2020/12/27 04:47:12;;;;;;;5.80;5.20;;;;;;;3.03;63.70;100412.53;4984337;28;97108;-76
2020/12/27 04:49:59;;;;;;;6.63;4.88;;;;;;;3.01;64.04;100394.53;4972745;28;98619;-75
2020/12/27 04:52:26;;;;;;;11.60;5.43;;;;;;;2.85;64.73;100405.97;4974091;28;100391;-77
2020/12/27 04:55:18;;;;;;;9.18;5.47;;;;;;;2.84;65.05;100406.84;4968714;28;96742;-77
2020/12/27 04:58:14;;;;;;;9.27;6.05;;;;;;;2.99;64.17;100401.44;4962440;28;96551;-76
2020/12/27 05:01:09;;;;;;;7.32;5.97;;;;;;;3.17;63.53;100394.28;4959058;28;98334;-77
2020/12/27 05:03:55;;;;;;;8.30;5.70;;;;;;;2.92;64.31;100397.25;4973584;28;97245;-75
2020/12/27 05:06:26;;;;;;;7.78;5.80;;;;;;;2.74;64.27;100400.13;4988062;28;96755;-76
2020/12/27 05:08:52;;;;;;;8.25;5.45;;;;;;;2.91;64.76;100400.69;4972824;28;96980;-75
2020/12/27 05:11:23;;;;;;;6.25;5.10;;;;;;;3.08;63.50;100396.13;4957822;28;100023;-76
2020/12/27 05:13:56;;;;;;;8.48;6.60;;;;;;;2.75;65.36;100392.38;4988281;28;100356;-76
2020/12/27 05:16:33;;;;;;;6.53;5.55;;;;;;;2.81;64.58;100391.44;4988181;28;96711;-76
2020/12/27 05:19:01;;;;;;;6.50;5.80;;;;;;;2.66;65.74;100389.94;4967610;28;96737;-76
2020/12/27 05:21:37;;;;;;;5.90;5.32;;;;;;;2.74;65.18;100392.41;4902897;28;100388;-76
2020/12/27 05:24:17;;;;;;;7.35;6.38;;;;;;;2.69;64.68;100397.63;4927149;28;97501;-72
2020/12/27 05:27:04;;;;;;;6.70;6.07;;;;;;;2.65;65.32;100395.13;4949143;28;96595;-76
2020/12/27 05:29:51;;;;;;;6.60;4.97;;;;;;;2.76;65.38;100401.78;4912853;28;96734;-75
2020/12/27 05:32:38;;;;;;;8.73;5.72;;;;;;;2.76;65.45;100406.09;4896276;28;97747;-76
2020/12/27 05:35:26;;;;;;;7.57;5.70;;;;;;;2.93;65.06;100410.97;4945010;28;98446;-76
2020/12/27 05:38:12;;;;;;;5.68;5.18;;;;;;;3.04;64.07;100402.22;4928260;28;98011;-76
2020/12/27 05:40:57;;;;;;;;;;;;;;;3.01;64.41;100402.25;4931934;28;96933;-76
2020/12/27 05:43:29;;;;;;;7.10;5.97;;;;;;;2.91;64.96;100398.13;4931181;28;100239;-76
2020/12/27 05:46:02;;;;;;;6.53;5.82;;;;;;;2.86;65.41;100399.94;4945478;28;100414;-76
2020/12/27 05:48:30;;;;;;;8.05;4.85;;;;;;;3.22;63.89;100400.19;4933277;28;97065;-76
2020/12/27 05:51:00;;;;;;;9.15;5.35;;;;;;;3.11;64.48;100396.06;4950574;28;96653;-76
2020/12/27 05:53:27;;;;;;;6.10;5.20;;;;;;;3.23;63.70;100397.59;4912727;28;100106;-76
2020/12/27 05:55:59;;;;;;;7.80;5.65;;;;;;;2.81;65.90;100389.69;4898700;28;98476;-75
2020/12/27 05:58:29;;;;;;;6.25;5.65;;;;;;;3.30;63.64;100390.59;4945414;28;97780;-75
2020/12/27 06:01:08;;;;;;;6.90;5.47;;;;;;;3.13;63.80;100388.31;4946145;28;98952;-75
2020/12/27 06:03:49;;;;;;;7.43;5.18;;;;;;;3.02;64.56;100383.34;4895606;28;100318;-75
2020/12/27 06:06:46;;;;;;;6.78;5.78;;;;;;;3.37;63.09;100374.16;4912924;28;99952;-75
2020/12/27 06:09:39;;;;;;;7.60;5.22;;;;;;;3.36;62.85;100362.16;4908046;28;97938;-75
2020/12/27 06:12:05;;;;;;;7.03;5.53;;;;;;;3.22;63.40;100364.97;4907195;28;97510;-75
2020/12/27 06:14:42;;;;;;;10.80;6.68;;;;;;;3.15;63.49;100366.81;4917147;28;99692;-75
2020/12/27 06:17:54;;;;;;;9.70;5.13;;;;;;;3.25;63.02;100367.50;4935161;28;97515;-76
2020/12/27 06:20:38;;;;;;;7.93;4.90;;;;;;;3.03;63.95;100364.44;4931743;28;97378;-76
2020/12/27 06:23:07;;;;;;;6.07;5.47;;;;;;;3.04;64.45;100366.16;4929316;28;96961;-76
2020/12/27 06:25:41;;;;;;;7.05;6.32;;;;;;;3.18;63.40;100370.22;4930436;28;99847;-76
2020/12/27 06:28:09;;;;;;;5.50;4.68;;;;;;;3.12;63.49;100361.72;4928706;28;99976;-75
2020/12/27 06:31:09;;;;;;;7.10;5.00;;;;;;;3.18;63.50;100359.91;4932144;28;97260;-75
2020/12/27 06:33:50;;;;;;;7.25;4.97;;;;;;;3.18;63.19;100362.47;4944222;28;97338;-75
2020/12/27 06:36:55;;;;;;;6.90;4.65;;;;;;;3.01;64.49;100355.06;4923079;28;98657;-75
2020/12/27 06:39:39;;;;;;;6.28;4.78;;;;;;;3.04;64.08;100355.00;4902145;28;100528;-75
2020/12/27 06:42:28;;;;;;;6.22;4.63;;;;;;;3.02;64.04;100347.28;4903903;28;98466;-74
2020/12/27 06:45:30;;;;;;;7.25;5.57;;;;;;;2.92;64.97;100345.75;4950292;28;96912;-75
2020/12/27 06:48:45;;;;;;;8.77;5.68;;;;;;;2.98;64.66;100345.63;4950195;28;97571;-75
2020/12/27 06:51:38;;;;;;;;;;;;;;;3.04;64.99;100340.41;4946623;28;98253;-75
2020/12/27 06:54:06;;;;;;;6.25;5.07;;;;;;;3.36;62.91;100342.41;4949709;28;96892;-75
2020/12/27 06:56:43;;;;;;;6.20;5.03;;;;;;;3.27;62.77;100333.97;4947997;28;96496;-76
2020/12/27 06:59:29;;;;;;;6.85;6.03;;;;;;;3.41;62.11;100335.44;4931445;28;99779;-75
2020/12/27 07:02:05;;;;;;;10.38;7.13;;;;;;;3.48;61.68;100336.16;4934604;28;99096;-69
2020/12/27 07:04:36;;;;;;;9.45;5.97;;;;;;;3.39;61.79;100331.16;4943569;28;97258;-71
2020/12/27 07:07:03;;;;;;;6.97;5.68;;;;;;;3.14;63.35;100341.94;4948121;28;96629;-70
2020/12/27 07:09:31;;;;;;;9.90;7.03;;;;;;;2.96;64.11;100337.09;4945100;28;98377;-71
2020/12/27 07:12:04;;;;;;;12.82;9.30;;;;;;;3.27;62.66;100331.41;4942588;28;98664;-71
2020/12/27 07:14:35;;;;;;;14.27;9.30;;;;;;;3.25;63.16;100325.41;4949495;28;96686;-71
2020/12/27 07:17:02;;;;;;;15.00;9.75;;;;;;;3.33;63.30;100326.13;4937597;28;96559;-74
2020/12/27 07:19:28;;;;;;;19.60;11.10;;;;;;;3.20;63.84;100324.69;4909245;28;97400;-74
2020/12/27 07:21:57;;;;;;;16.50;10.55;;;;;;;3.30;64.13;100329.63;4968418;28;96816;-74
2020/12/27 07:24:25;;;;;;;14.98;10.57;;;;;;;3.56;62.56;100329.09;4930886;28;96599;-73
2020/12/27 07:26:51;;;;;;;24.92;12.25;;;;;;;3.45;63.36;100325.88;4965959;28;96667;-73
2020/12/27 07:29:23;;;;;;;11.77;8.15;;;;;;;3.61;63.14;100322.13;4970627;28;98578;-74
2020/12/27 07:31:51;;;;;;;12.35;8.13;;;;;;;3.98;62.53;100320.50;4971543;28;98544;-74
2020/12/27 07:34:21;;;;;;;12.73;9.40;;;;;;;4.37;61.67;100318.78;4970549;28;96597;-72
2020/12/27 07:36:51;;;;;;;13.20;8.15;;;;;;;4.73;61.16;100307.53;4950535;28;96627;-73
2020/12/27 07:39:41;;;;;;;9.30;7.38;;;;;;;5.22;59.89;100302.84;4950414;28;98514;-71
2020/12/27 07:42:38;;;;;;;9.98;7.90;;;;;;;5.64;58.82;100303.38;4952316;28;98547;-73
2020/12/27 07:45:06;;;;;;;12.02;8.50;;;;;;;6.15;57.36;100294.13;4962480;28;97022;-74
2020/12/27 07:47:36;;;;;;;9.25;8.35;;;;;;;6.34;56.72;100278.88;4965817;28;96645;-73
2020/12/27 07:50:07;;;;;;;10.25;9.00;;;;;;;6.72;55.79;100286.25;4967898;28;98546;-74
2020/12/27 07:52:52;;;;;;;8.80;7.55;;;;;;;6.92;55.50;100277.78;4964771;28;98780;-72
2020/12/27 07:55:37;;;;;;;11.07;8.30;;;;;;;7.19;54.65;100281.19;4961007;28;96755;-73
2020/12/27 07:58:05;;;;;;;10.85;8.50;;;;;;;7.41;54.37;100280.41;4966693;28;96657;-74
2020/12/27 08:00:35;;;;;;;10.02;9.02;;;;;;;7.72;53.08;100282.69;4965050;28;98578;-73
2020/12/27 08:03:08;;;;;;;9.80;7.70;;;;;;;7.94;51.76;100281.00;4969729;28;98482;-74
2020/12/27 08:05:35;;;;;;;10.98;7.95;;;;;;;8.29;50.43;100278.75;4970585;28;96642;-74
2020/12/27 08:08:03;;;;;;;10.20;8.43;;;;;;;8.33;50.67;100277.72;4969765;28;96697;-75
2020/12/27 08:10:29;;;;;;;12.27;9.35;;;;;;;8.57;48.44;100278.50;4970661;28;98532;-71
2020/12/27 08:12:59;;;;;;;11.35;9.18;;;;;;;8.61;48.02;100283.50;4968678;28;98609;-71
2020/12/27 08:15:30;;;;;;;10.02;7.85;;;;;;;8.57;46.96;100281.09;4969095;28;96620;-72
2020/12/27 08:18:01;;;;;;;9.52;8.00;;;;;;;8.75;47.01;100274.31;4961873;28;96661;-70
2020/12/27 08:20:28;;;;;;;11.05;8.85;;;;;;;8.69;47.08;100272.81;4942345;28;100470;-73
2020/12/27 08:22:57;;;;;;;32.30;15.50;;;;;;;8.67;46.33;100266.81;4945403;28;98960;-71
2020/12/27 08:25:24;;;;;;;18.58;13.45;;;;;;;8.59;46.44;100269.75;4946746;28;96614;-69
2020/12/27 08:27:55;;;;;;;15.57;11.88;;;;;;;8.58;46.38;100265.47;4934665;28;97647;-69
2020/12/27 08:30:21;;;;;;;11.63;8.82;;;;;;;8.52;46.58;100262.25;4941564;28;98626;-70
2020/12/27 08:32:48;;;;;;;12.10;9.60;;;;;;;8.38;47.35;100260.22;4943342;28;98671;-70
2020/12/27 08:35:26;;;;;;;9.82;7.25;;;;;;;7.95;48.40;100271.44;4939652;28;96600;-71
2020/12/27 08:37:55;;;;;;;10.25;8.82;;;;;;;7.99;48.20;100271.28;4937469;28;96708;-70
2020/12/27 08:40:21;;;;;;;11.52;9.38;;;;;;;7.40;51.08;100276.09;4903208;28;98479;-71
2020/12/27 08:42:48;;;;;;;10.77;8.35;;;;;;;7.13;51.98;100268.41;4922398;28;98544;-70
2020/12/27 08:45:16;;;;;;;11.35;7.88;;;;;;;6.92;51.67;100262.22;4926795;28;97079;-70
2020/12/27 08:47:45;;;;;;;9.15;7.63;;;;;;;6.60;52.53;100250.38;4928676;28;98509;-69
2020/12/27 08:50:24;;;;;;;9.30;7.43;;;;;;;6.39;54.08;100254.53;4948962;28;98488;-70
2020/12/27 08:52:55;;;;;;;9.23;7.15;;;;;;;6.41;52.63;100255.31;4945954;28;98454;-70
2020/12/27 08:55:27;;;;;;;10.18;8.00;;;;;;;6.36;52.26;100249.44;4950115;28;96662;-71
2020/12/27 08:57:57;;;;;;;10.23;8.30;;;;;;;6.11;52.60;100251.97;4933611;28;96798;-68
2020/12/27 09:00:33;;;;;;;10.80;7.70;;;;;;;5.89;54.06;100261.25;4948719;28;98622;-68
2020/12/27 09:03:01;;;;;;;9.25;8.35;;;;;;;5.64;54.00;100256.81;4950010;28;98681;-68
2020/12/27 09:05:28;;;;;;;10.15;7.93;;;;;;;5.76;54.22;100253.88;4948358;28;96623;-77
2020/12/27 09:07:54;;;;;;;8.77;7.63;;;;;;;5.91;53.36;100256.88;4950900;28;96750;-77
2020/12/27 09:10:23;;;;;;;10.18;7.82;;;;;;;5.99;52.26;100252.38;4949906;28;98412;-80
2020/12/27 09:13:05;;;;;;;7.93;7.13;;;;;;;6.08;52.95;100252.09;4951097;28;98577;-77
2020/12/27 09:15:47;;;;;;;12.65;7.78;;;;;;;5.86;53.50;100248.41;4950143;28;98264;-77
2020/12/27 09:18:15;;;;;;;10.63;7.03;;;;;;;5.99;53.84;100232.50;4949785;28;97387;-77
2020/12/27 09:20:43;;;;;;;12.02;7.95;;;;;;;6.01;53.48;100229.88;4971274;28;99976;-76
2020/12/27 09:23:13;;;;;;;9.43;7.97;;;;;;;6.03;51.83;100217.75;4969947;28;98583;-77
2020/12/27 09:25:40;;;;;;;12.15;9.10;;;;;;;5.74;53.28;100226.34;4970318;28;97627;-76
2020/12/27 09:28:14;;;;;;;10.25;7.38;;;;;;;5.85;53.68;100218.25;4970665;28;97160;-77
2020/12/27 09:30:42;;;;;;;9.35;8.38;;;;;;;6.08;53.38;100200.31;4968999;28;98469;-77
2020/12/27 09:33:09;;;;;;;10.00;8.95;;;;;;;5.88;54.32;100197.50;4968545;28;98741;-77
2020/12/27 09:35:35;;;;;;;8.90;8.00;;;;;;;5.95;54.67;100191.25;4971171;28;97591;-77
2020/12/27 09:38:02;;;;;;;12.80;8.13;;;;;;;5.91;54.13;100189.63;4971319;28;96978;-74
2020/12/27 09:40:35;;;;;;;8.35;6.82;;;;;;;6.01;53.39;100180.69;4972259;28;98760;-76
2020/12/27 09:43:03;;;;;;;8.75;7.35;;;;;;;6.07;52.77;100169.28;4972415;28;98391;-75
2020/12/27 09:45:31;;;;;;;12.00;8.10;;;;;;;6.12;52.53;100170.84;4971385;28;97260;-75
2020/12/27 09:48:02;;;;;;;8.98;6.85;;;;;;;6.02;51.20;100170.31;4972251;28;96702;-74
2020/12/27 09:50:35;;;;;;;8.00;6.90;;;;;;;6.14;50.97;100163.88;4971676;28;98645;-74
2020/12/27 09:53:02;;;;;;;8.10;6.50;;;;;;;6.18;49.83;100155.13;4971656;28;98615;-76
2020/12/27 09:55:28;;;;;;;10.05;8.07;;;;;;;6.24;49.74;100148.91;4972575;28;96763;-75
2020/12/27 09:57:55;;;;;;;7.43;6.68;;;;;;;6.13;51.06;100149.25;4980342;28;98872;-80
2020/12/27 10:00:21;;;;;;;13.50;8.80;;;;;;;6.20;51.42;100142.97;4954015;28;98606;-76
2020/12/27 10:02:48;;;;;;;11.65;8.68;;;;;;;5.93;52.82;100141.31;4971573;28;98971;-78
2020/12/27 10:05:14;;;;;;;14.18;10.88;;;;;;;6.00;54.25;100145.38;4972129;28;96643;-77
2020/12/27 10:07:41;;;;;;;13.73;12.25;;;;;;;5.99;53.24;100139.34;4955729;28;97058;-77
2020/12/27 10:10:09;;;;;;;28.90;20.13;;;;;;;5.91;52.10;100130.09;4971999;28;97634;-77
2020/12/27 10:12:35;;;;;;;14.32;12.82;;;;;;;5.92;52.33;100130.13;4971447;28;98444;-76
2020/12/27 10:15:03;;;;;;;16.67;11.43;;;;;;;5.96;51.65;100128.25;4970424;28;96727;-75
2020/12/27 10:17:30;;;;;;;10.65;7.15;;;;;;;6.07;51.09;100128.72;4969104;28;96643;-77
2020/12/27 10:19:58;;;;;;;18.00;15.05;;;;;;;5.93;50.64;100123.19;4969945;28;98426;-65
2020/12/27 10:22:26;;;;;;;9.07;7.18;;;;;;;6.13;50.65;100125.13;4970475;28;98762;-64
2020/12/27 10:24:52;;;;;;;9.18;7.88;;;;;;;6.24;49.79;100110.91;4971991;28;96618;-62
2020/12/27 10:27:19;;;;;;;8.15;6.85;;;;;;;6.34;50.14;100100.22;4971818;28;96652;-71
2020/12/27 10:29:45;;;;;;;9.40;6.10;;;;;;;6.37;50.46;100097.53;4974589;28;98715;-67
2020/12/27 10:32:11;;;;;;;7.93;6.93;;;;;;;6.28;50.86;100088.34;4974187;28;98661;-67
2020/12/27 10:34:38;;;;;;;7.72;6.90;;;;;;;6.24;51.41;100079.00;4971263;28;96621;-70
2020/12/27 10:37:04;;;;;;;9.95;6.57;;;;;;;6.26;52.33;100079.78;4971141;28;97058;-73
2020/12/27 10:39:31;;;;;;;8.23;6.50;;;;;;;6.15;52.63;100075.00;4970938;28;98995;-72
2020/12/27 10:41:58;;;;;;;9.93;7.05;;;;;;;6.33;52.46;100065.72;4971346;28;98541;-74
2020/12/27 10:44:24;;;;;;;12.95;11.07;;;;;;;6.40;52.20;100053.44;4970722;28;96568;-69
2020/12/27 10:46:51;;;;;;;14.00;11.85;;;;;;;6.35;52.48;100048.41;4971448;28;96596;-67
2020/12/27 10:49:18;;;;;;;15.85;14.27;;;;;;;6.19;52.49;100036.91;4969176;28;97918;-66
2020/12/27 10:51:44;;;;;;;11.77;8.38;;;;;;;6.04;52.18;100040.88;4968319;28;97608;-66
2020/12/27 10:54:11;;;;;;;9.95;7.35;;;;;;;6.27;51.36;100032.28;4970175;28;96711;-63
2020/12/27 10:56:39;;;;;;;8.73;6.90;;;;;;;6.04;51.60;100027.94;4970904;28;96738;-64
2020/12/27 10:59:06;;;;;;;14.75;7.00;;;;;;;6.28;51.83;100016.72;4972578;28;98558;-67
2020/12/27 11:01:32;;;;;;;7.57;6.68;;;;;;;6.29;52.21;100014.97;4970075;28;98676;-66
2020/12/27 11:03:59;;;;;;;12.25;10.05;;;;;;;6.22;51.98;100001.38;4968760;28;96610;-65
2020/12/27 11:06:29;;;;;;;6.30;5.70;;;;;;;6.33;51.98;99990.66;4969909;28;97026;-65
2020/12/27 11:08:56;;;;;;;6.82;6.13;;;;;;;6.46;52.03;99991.91;4964415;28;98559;-71
2020/12/27 11:11:33;;;;;;;8.40;6.45;;;;;;;6.52;51.37;99977.88;4952326;28;98502;-77
2020/12/27 11:14:00;;;;;;;12.32;9.25;;;;;;;6.38;51.61;99974.94;4968615;28;96683;-78
2020/12/27 11:16:26;;;;;;;15.50;10.07;;;;;;;6.42;51.75;99963.59;4967887;28;97566;-74
2020/12/27 11:18:52;;;;;;;9.35;6.57;;;;;;;6.46;50.99;99963.41;4969515;28;98481;-73
2020/12/27 11:21:19;;;;;;;12.77;9.68;;;;;;;6.46;50.64;99960.81;4970001;28;98621;-76
2020/12/27 11:23:45;;;;;;;11.40;7.50;;;;;;;6.38;51.07;99951.66;4968513;28;96813;-76
2020/12/27 11:26:16;;;;;;;10.32;5.47;;;;;;;6.52;51.31;99944.22;4969246;28;98440;-75
2020/12/27 11:28:43;;;;;;;9.23;6.22;;;;;;;6.45;51.42;99938.44;4968031;28;98534;-74
2020/12/27 11:31:10;;;;;;;8.55;7.18;;;;;;;6.33;52.51;99935.44;4970721;28;98144;-74
2020/12/27 11:33:37;;;;;;;13.77;6.40;;;;;;;6.48;52.48;99924.50;4970543;28;97965;-74
2020/12/27 11:36:03;;;;;;;14.60;11.82;;;;;;;6.49;52.43;99926.19;4970412;28;96697;-74
2020/12/27 11:38:30;;;;;;;14.70;9.52;;;;;;;6.42;51.31;99914.38;4945253;28;98751;-75
2020/12/27 11:40:56;;;;;;;27.60;13.77;;;;;;;6.51;52.25;99914.03;4965942;28;97462;-76
2020/12/27 11:43:22;;;;;;;9.25;6.63;;;;;;;6.58;51.62;99907.72;4971092;28;96674;-76
2020/12/27 11:45:49;;;;;;;6.45;5.45;;;;;;;6.38;51.54;99903.28;4971418;28;96741;-76
2020/12/27 11:48:15;;;;;;;8.68;7.38;;;;;;;6.27;51.82;99889.91;4970830;28;98614;-76
2020/12/27 11:50:42;;;;;;;11.93;7.10;;;;;;;6.41;51.64;99877.31;4969857;28;98453;-80
2020/12/27 11:53:09;;;;;;;9.63;7.50;;;;;;;6.16;50.17;99873.97;4969471;28;97630;-77